sensor_id;sensor_type;location;lat;lon;timestamp;P1;durP1;ratioP1;P2;durP2;ratioP2
16870;SDS011;8552;48.120;-1.456;2024-03-07T00:02:17;11.00;;;4.30;;
16870;SDS011;8552;48.120;-1.456;2024-03-07T00:04:43;10.30;;;4.27;;
16870;SDS011;8552;48.120;-1.456;2024-03-07T00:07:09;8.47;;;4.43;;
16870;SDS011;8552;48.120;-1.456;2024-03-07T00:09:36;16.13;;;4.60;;
16870;SDS011;8552;48.120;-1.456;2024-03-07T00:12:02;6.97;;;3.33;;
16870;SDS011;8552;48.120;-1.456;2024-03-07T00:14:29;17.47;;;4.17;;
16870;SDS011;8552;48.120;-1.456;2024-03-07T00:16:55;8.90;;;3.47;;
16870;SDS011;8552;48.120;-1.456;2024-03-07T00:19:22;10.10;;;5.43;;
16870;SDS011;8552;48.120;-1.456;2024-03-07T00:21:55;7.67;;;3.77;;
16870;SDS011;8552;48.120;-1.456;2024-03-07T00:24:21;7.70;;;3.93;;
16870;SDS011;8552;48.120;-1.456;2024-03-07T00:26:52;7.10;;;3.57;;
16870;SDS011;8552;48.120;-1.456;2024-03-07T00:29:18;11.10;;;3.73;;
16870;SDS011;8552;48.120;-1.456;2024-03-07T00:31:45;9.63;;;3.43;;
16870;SDS011;8552;48.120;-1.456;2024-03-07T00:34:12;10.07;;;3.97;;
16870;SDS011;8552;48.120;-1.456;2024-03-07T00:36:39;7.87;;;3.80;;
16870;SDS011;8552;48.120;-1.456;2024-03-07T00:39:05;10.03;;;3.83;;
16870;SDS011;8552;48.120;-1.456;2024-03-07T00:41:37;8.07;;;4.00;;
16870;SDS011;8552;48.120;-1.456;2024-03-07T00:44:03;10.73;;;6.00;;
16870;SDS011;8552;48.120;-1.456;2024-03-07T00:46:29;9.10;;;4.50;;
16870;SDS011;8552;48.120;-1.456;2024-03-07T00:48:55;8.87;;;4.10;;
16870;SDS011;8552;48.120;-1.456;2024-03-07T00:51:21;10.83;;;4.40;;
16870;SDS011;8552;48.120;-1.456;2024-03-07T00:53:47;9.03;;;3.87;;
16870;SDS011;8552;48.120;-1.456;2024-03-07T00:56:13;12.40;;;3.57;;
16870;SDS011;8552;48.120;-1.456;2024-03-07T00:58:39;13.73;;;4.23;;
16870;SDS011;8552;48.120;-1.456;2024-03-07T01:01:06;10.33;;;4.00;;
16870;SDS011;8552;48.120;-1.456;2024-03-07T01:03:32;8.83;;;4.33;;
16870;SDS011;8552;48.120;-1.456;2024-03-07T01:05:58;14.10;;;5.33;;
16870;SDS011;8552;48.120;-1.456;2024-03-07T01:08:24;8.35;;;3.70;;
16870;SDS011;8552;48.120;-1.456;2024-03-07T01:10:50;8.80;;;4.30;;
16870;SDS011;8552;48.120;-1.456;2024-03-07T01:13:16;11.07;;;3.60;;
16870;SDS011;8552;48.120;-1.456;2024-03-07T01:15:47;5.27;;;3.30;;
16870;SDS011;8552;48.120;-1.456;2024-03-07T01:18:13;7.97;;;3.20;;
16870;SDS011;8552;48.120;-1.456;2024-03-07T01:20:39;5.33;;;3.10;;
16870;SDS011;8552;48.120;-1.456;2024-03-07T01:23:05;7.63;;;3.97;;
16870;SDS011;8552;48.120;-1.456;2024-03-07T01:25:33;8.03;;;3.30;;
16870;SDS011;8552;48.120;-1.456;2024-03-07T01:28:02;8.27;;;3.57;;
16870;SDS011;8552;48.120;-1.456;2024-03-07T01:30:29;11.13;;;3.67;;
16870;SDS011;8552;48.120;-1.456;2024-03-07T01:32:55;14.27;;;6.97;;
16870;SDS011;8552;48.120;-1.456;2024-03-07T01:35:21;6.83;;;3.23;;
16870;SDS011;8552;48.120;-1.456;2024-03-07T01:37:47;8.30;;;3.73;;
16870;SDS011;8552;48.120;-1.456;2024-03-07T01:40:13;5.37;;;3.20;;
16870;SDS011;8552;48.120;-1.456;2024-03-07T01:42:39;6.33;;;3.33;;
16870;SDS011;8552;48.120;-1.456;2024-03-07T01:45:05;7.77;;;3.87;;
16870;SDS011;8552;48.120;-1.456;2024-03-07T01:47:34;9.60;;;4.57;;
16870;SDS011;8552;48.120;-1.456;2024-03-07T01:50:01;8.03;;;4.23;;
16870;SDS011;8552;48.120;-1.456;2024-03-07T01:52:28;13.70;;;5.50;;
16870;SDS011;8552;48.120;-1.456;2024-03-07T01:54:54;16.73;;;5.13;;
16870;SDS011;8552;48.120;-1.456;2024-03-07T01:57:20;7.13;;;4.67;;
16870;SDS011;8552;48.120;-1.456;2024-03-07T01:59:47;9.90;;;4.73;;
16870;SDS011;8552;48.120;-1.456;2024-03-07T02:02:13;11.50;;;5.20;;
16870;SDS011;8552;48.120;-1.456;2024-03-07T02:04:39;11.77;;;5.13;;
16870;SDS011;8552;48.120;-1.456;2024-03-07T02:07:05;10.80;;;5.10;;
16870;SDS011;8552;48.120;-1.456;2024-03-07T02:09:31;10.47;;;4.60;;
16870;SDS011;8552;48.120;-1.456;2024-03-07T02:11:57;10.67;;;4.60;;
16870;SDS011;8552;48.120;-1.456;2024-03-07T02:14:23;10.67;;;4.60;;
16870;SDS011;8552;48.120;-1.456;2024-03-07T02:16:49;13.50;;;5.20;;
16870;SDS011;8552;48.120;-1.456;2024-03-07T02:19:15;12.20;;;5.07;;
16870;SDS011;8552;48.120;-1.456;2024-03-07T02:21:43;14.60;;;5.87;;
16870;SDS011;8552;48.120;-1.456;2024-03-07T02:24:09;6.03;;;4.23;;
16870;SDS011;8552;48.120;-1.456;2024-03-07T02:26:35;7.73;;;4.47;;
16870;SDS011;8552;48.120;-1.456;2024-03-07T02:29:01;11.17;;;5.00;;
16870;SDS011;8552;48.120;-1.456;2024-03-07T02:31:28;13.93;;;5.60;;
16870;SDS011;8552;48.120;-1.456;2024-03-07T02:34:02;7.97;;;4.50;;
16870;SDS011;8552;48.120;-1.456;2024-03-07T02:36:28;13.13;;;5.33;;
16870;SDS011;8552;48.120;-1.456;2024-03-07T02:38:54;12.13;;;4.73;;
16870;SDS011;8552;48.120;-1.456;2024-03-07T02:41:20;8.70;;;4.50;;
16870;SDS011;8552;48.120;-1.456;2024-03-07T02:43:46;11.20;;;4.73;;
16870;SDS011;8552;48.120;-1.456;2024-03-07T02:46:12;9.30;;;4.47;;
16870;SDS011;8552;48.120;-1.456;2024-03-07T02:48:38;13.63;;;5.93;;
16870;SDS011;8552;48.120;-1.456;2024-03-07T02:51:04;8.23;;;4.40;;
16870;SDS011;8552;48.120;-1.456;2024-03-07T02:53:33;9.97;;;4.63;;
16870;SDS011;8552;48.120;-1.456;2024-03-07T02:55:59;12.53;;;5.43;;
16870;SDS011;8552;48.120;-1.456;2024-03-07T02:58:26;10.73;;;4.90;;
16870;SDS011;8552;48.120;-1.456;2024-03-07T03:00:58;9.27;;;4.80;;
16870;SDS011;8552;48.120;-1.456;2024-03-07T03:03:25;10.13;;;5.30;;
16870;SDS011;8552;48.120;-1.456;2024-03-07T03:05:51;10.17;;;4.77;;
16870;SDS011;8552;48.120;-1.456;2024-03-07T03:08:17;13.87;;;4.87;;
16870;SDS011;8552;48.120;-1.456;2024-03-07T03:10:43;10.03;;;4.50;;
16870;SDS011;8552;48.120;-1.456;2024-03-07T03:13:09;11.80;;;4.67;;
16870;SDS011;8552;48.120;-1.456;2024-03-07T03:15:35;7.77;;;4.30;;
16870;SDS011;8552;48.120;-1.456;2024-03-07T03:18:04;29.40;;;5.93;;
16870;SDS011;8552;48.120;-1.456;2024-03-07T03:20:30;13.50;;;5.53;;
16870;SDS011;8552;48.120;-1.456;2024-03-07T03:23:00;8.73;;;4.57;;
16870;SDS011;8552;48.120;-1.456;2024-03-07T03:25:28;11.20;;;5.00;;
16870;SDS011;8552;48.120;-1.456;2024-03-07T03:27:54;9.17;;;4.47;;
16870;SDS011;8552;48.120;-1.456;2024-03-07T03:30:20;13.20;;;4.70;;
16870;SDS011;8552;48.120;-1.456;2024-03-07T03:32:47;11.00;;;4.73;;
16870;SDS011;8552;48.120;-1.456;2024-03-07T03:35:13;7.93;;;4.77;;
16870;SDS011;8552;48.120;-1.456;2024-03-07T03:37:41;10.07;;;5.10;;
16870;SDS011;8552;48.120;-1.456;2024-03-07T03:40:07;13.37;;;6.23;;
16870;SDS011;8552;48.120;-1.456;2024-03-07T03:42:35;10.43;;;5.13;;
16870;SDS011;8552;48.120;-1.456;2024-03-07T03:45:02;10.57;;;4.80;;
16870;SDS011;8552;48.120;-1.456;2024-03-07T03:47:31;19.40;;;5.60;;
16870;SDS011;8552;48.120;-1.456;2024-03-07T03:49:58;14.80;;;5.50;;
16870;SDS011;8552;48.120;-1.456;2024-03-07T03:52:24;13.03;;;5.47;;
16870;SDS011;8552;48.120;-1.456;2024-03-07T03:54:51;14.00;;;5.20;;
16870;SDS011;8552;48.120;-1.456;2024-03-07T03:57:17;11.43;;;4.63;;
16870;SDS011;8552;48.120;-1.456;2024-03-07T03:59:43;14.50;;;5.70;;
16870;SDS011;8552;48.120;-1.456;2024-03-07T04:02:10;13.97;;;5.10;;
16870;SDS011;8552;48.120;-1.456;2024-03-07T04:04:38;9.77;;;4.63;;
16870;SDS011;8552;48.120;-1.456;2024-03-07T04:07:04;10.60;;;5.10;;
16870;SDS011;8552;48.120;-1.456;2024-03-07T04:09:30;10.30;;;5.50;;
16870;SDS011;8552;48.120;-1.456;2024-03-07T04:11:56;10.80;;;5.20;;
16870;SDS011;8552;48.120;-1.456;2024-03-07T04:14:24;10.43;;;4.60;;
16870;SDS011;8552;48.120;-1.456;2024-03-07T04:16:50;11.30;;;5.10;;
16870;SDS011;8552;48.120;-1.456;2024-03-07T04:19:16;10.80;;;4.80;;
16870;SDS011;8552;48.120;-1.456;2024-03-07T04:21:45;15.30;;;5.43;;
16870;SDS011;8552;48.120;-1.456;2024-03-07T04:24:11;10.60;;;5.17;;
16870;SDS011;8552;48.120;-1.456;2024-03-07T04:26:37;9.70;;;4.70;;
16870;SDS011;8552;48.120;-1.456;2024-03-07T04:29:06;6.77;;;4.47;;
16870;SDS011;8552;48.120;-1.456;2024-03-07T04:31:33;7.30;;;4.77;;
16870;SDS011;8552;48.120;-1.456;2024-03-07T04:33:59;13.73;;;5.77;;
16870;SDS011;8552;48.120;-1.456;2024-03-07T04:36:25;12.73;;;5.73;;
16870;SDS011;8552;48.120;-1.456;2024-03-07T04:38:52;10.33;;;4.73;;
16870;SDS011;8552;48.120;-1.456;2024-03-07T04:41:18;13.37;;;5.50;;
16870;SDS011;8552;48.120;-1.456;2024-03-07T04:43:44;13.83;;;5.17;;
16870;SDS011;8552;48.120;-1.456;2024-03-07T04:46:10;13.63;;;5.30;;
16870;SDS011;8552;48.120;-1.456;2024-03-07T04:48:36;9.03;;;4.80;;
16870;SDS011;8552;48.120;-1.456;2024-03-07T04:51:03;10.20;;;5.40;;
16870;SDS011;8552;48.120;-1.456;2024-03-07T04:53:29;10.63;;;5.13;;
16870;SDS011;8552;48.120;-1.456;2024-03-07T04:55:55;15.60;;;5.57;;
16870;SDS011;8552;48.120;-1.456;2024-03-07T04:58:21;12.70;;;5.43;;
16870;SDS011;8552;48.120;-1.456;2024-03-07T05:00:47;9.53;;;4.60;;
16870;SDS011;8552;48.120;-1.456;2024-03-07T05:03:13;8.03;;;4.73;;
16870;SDS011;8552;48.120;-1.456;2024-03-07T05:05:39;13.60;;;5.70;;
16870;SDS011;8552;48.120;-1.456;2024-03-07T05:08:06;9.80;;;5.00;;
16870;SDS011;8552;48.120;-1.456;2024-03-07T05:10:32;9.07;;;5.30;;
16870;SDS011;8552;48.120;-1.456;2024-03-07T05:13:01;9.63;;;4.97;;
16870;SDS011;8552;48.120;-1.456;2024-03-07T05:15:27;9.90;;;4.90;;
16870;SDS011;8552;48.120;-1.456;2024-03-07T05:17:53;9.60;;;4.90;;
16870;SDS011;8552;48.120;-1.456;2024-03-07T05:20:21;11.73;;;5.10;;
16870;SDS011;8552;48.120;-1.456;2024-03-07T05:22:47;14.30;;;5.20;;
16870;SDS011;8552;48.120;-1.456;2024-03-07T05:25:15;11.27;;;4.77;;
16870;SDS011;8552;48.120;-1.456;2024-03-07T05:27:43;8.90;;;5.13;;
16870;SDS011;8552;48.120;-1.456;2024-03-07T05:30:09;7.73;;;4.77;;
16870;SDS011;8552;48.120;-1.456;2024-03-07T05:32:36;14.77;;;5.63;;
16870;SDS011;8552;48.120;-1.456;2024-03-07T05:35:03;12.17;;;5.00;;
16870;SDS011;8552;48.120;-1.456;2024-03-07T05:37:29;8.83;;;5.53;;
16870;SDS011;8552;48.120;-1.456;2024-03-07T05:39:56;7.30;;;4.37;;
16870;SDS011;8552;48.120;-1.456;2024-03-07T05:42:22;8.83;;;5.30;;
16870;SDS011;8552;48.120;-1.456;2024-03-07T05:44:50;6.97;;;4.50;;
16870;SDS011;8552;48.120;-1.456;2024-03-07T05:47:16;7.20;;;4.57;;
16870;SDS011;8552;48.120;-1.456;2024-03-07T05:49:42;9.90;;;5.47;;
16870;SDS011;8552;48.120;-1.456;2024-03-07T05:52:09;7.87;;;4.73;;
16870;SDS011;8552;48.120;-1.456;2024-03-07T05:54:35;12.40;;;5.00;;
16870;SDS011;8552;48.120;-1.456;2024-03-07T05:57:01;8.60;;;4.57;;
16870;SDS011;8552;48.120;-1.456;2024-03-07T05:59:28;9.07;;;5.13;;
16870;SDS011;8552;48.120;-1.456;2024-03-07T06:01:54;9.37;;;5.37;;
16870;SDS011;8552;48.120;-1.456;2024-03-07T06:04:20;8.53;;;4.27;;
16870;SDS011;8552;48.120;-1.456;2024-03-07T06:06:46;14.13;;;4.80;;
16870;SDS011;8552;48.120;-1.456;2024-03-07T06:09:13;10.93;;;4.57;;
16870;SDS011;8552;48.120;-1.456;2024-03-07T06:11:40;9.40;;;5.10;;
16870;SDS011;8552;48.120;-1.456;2024-03-07T06:14:07;7.97;;;4.83;;
16870;SDS011;8552;48.120;-1.456;2024-03-07T06:16:37;8.87;;;4.30;;
16870;SDS011;8552;48.120;-1.456;2024-03-07T06:19:04;9.50;;;4.60;;
16870;SDS011;8552;48.120;-1.456;2024-03-07T06:21:33;6.23;;;4.40;;
16870;SDS011;8552;48.120;-1.456;2024-03-07T06:23:59;6.77;;;4.47;;
16870;SDS011;8552;48.120;-1.456;2024-03-07T06:26:27;11.87;;;4.70;;
16870;SDS011;8552;48.120;-1.456;2024-03-07T06:29:14;9.50;;;4.50;;
16870;SDS011;8552;48.120;-1.456;2024-03-07T06:31:41;8.67;;;4.33;;
16870;SDS011;8552;48.120;-1.456;2024-03-07T06:34:07;15.67;;;4.83;;
16870;SDS011;8552;48.120;-1.456;2024-03-07T06:36:34;8.50;;;4.40;;
16870;SDS011;8552;48.120;-1.456;2024-03-07T06:39:00;10.10;;;5.23;;
16870;SDS011;8552;48.120;-1.456;2024-03-07T06:41:28;9.20;;;5.40;;
16870;SDS011;8552;48.120;-1.456;2024-03-07T06:43:54;11.77;;;5.10;;
16870;SDS011;8552;48.120;-1.456;2024-03-07T06:46:20;6.20;;;4.23;;
16870;SDS011;8552;48.120;-1.456;2024-03-07T06:48:46;12.87;;;5.50;;
16870;SDS011;8552;48.120;-1.456;2024-03-07T06:51:12;9.47;;;4.20;;
16870;SDS011;8552;48.120;-1.456;2024-03-07T06:53:38;8.90;;;4.60;;
16870;SDS011;8552;48.120;-1.456;2024-03-07T06:56:05;8.27;;;5.10;;
16870;SDS011;8552;48.120;-1.456;2024-03-07T06:58:31;8.83;;;5.37;;
16870;SDS011;8552;48.120;-1.456;2024-03-07T07:00:57;8.77;;;5.30;;
16870;SDS011;8552;48.120;-1.456;2024-03-07T07:03:25;7.27;;;5.30;;
16870;SDS011;8552;48.120;-1.456;2024-03-07T07:05:53;7.83;;;4.93;;
16870;SDS011;8552;48.120;-1.456;2024-03-07T07:08:19;10.20;;;4.80;;
16870;SDS011;8552;48.120;-1.456;2024-03-07T07:10:47;7.73;;;5.13;;
16870;SDS011;8552;48.120;-1.456;2024-03-07T07:13:13;7.27;;;4.70;;
16870;SDS011;8552;48.120;-1.456;2024-03-07T07:15:39;8.60;;;5.10;;
16870;SDS011;8552;48.120;-1.456;2024-03-07T07:18:06;14.03;;;5.50;;
16870;SDS011;8552;48.120;-1.456;2024-03-07T07:20:35;8.80;;;5.97;;
16870;SDS011;8552;48.120;-1.456;2024-03-07T07:23:02;9.90;;;5.80;;
16870;SDS011;8552;48.120;-1.456;2024-03-07T07:25:29;13.00;;;5.43;;
16870;SDS011;8552;48.120;-1.456;2024-03-07T07:27:55;11.67;;;5.17;;
16870;SDS011;8552;48.120;-1.456;2024-03-07T07:30:22;12.70;;;6.10;;
16870;SDS011;8552;48.120;-1.456;2024-03-07T07:32:49;9.60;;;5.40;;
16870;SDS011;8552;48.120;-1.456;2024-03-07T07:35:15;14.13;;;5.40;;
16870;SDS011;8552;48.120;-1.456;2024-03-07T07:37:42;8.97;;;5.40;;
16870;SDS011;8552;48.120;-1.456;2024-03-07T07:40:09;13.10;;;5.50;;
16870;SDS011;8552;48.120;-1.456;2024-03-07T07:42:39;14.07;;;6.17;;
16870;SDS011;8552;48.120;-1.456;2024-03-07T07:45:07;12.77;;;6.03;;
16870;SDS011;8552;48.120;-1.456;2024-03-07T07:47:38;10.43;;;5.07;;
16870;SDS011;8552;48.120;-1.456;2024-03-07T07:50:06;12.83;;;5.77;;
16870;SDS011;8552;48.120;-1.456;2024-03-07T07:52:39;9.37;;;5.13;;
16870;SDS011;8552;48.120;-1.456;2024-03-07T07:55:05;11.70;;;5.60;;
16870;SDS011;8552;48.120;-1.456;2024-03-07T07:57:39;11.40;;;5.63;;
16870;SDS011;8552;48.120;-1.456;2024-03-07T08:00:06;9.73;;;5.70;;
16870;SDS011;8552;48.120;-1.456;2024-03-07T08:02:34;11.60;;;5.70;;
16870;SDS011;8552;48.120;-1.456;2024-03-07T08:05:00;12.20;;;5.37;;
16870;SDS011;8552;48.120;-1.456;2024-03-07T08:07:26;10.03;;;5.33;;
16870;SDS011;8552;48.120;-1.456;2024-03-07T08:09:52;13.17;;;5.40;;
16870;SDS011;8552;48.120;-1.456;2024-03-07T08:12:19;12.77;;;5.33;;
16870;SDS011;8552;48.120;-1.456;2024-03-07T08:14:45;12.93;;;6.23;;
16870;SDS011;8552;48.120;-1.456;2024-03-07T08:17:11;10.67;;;5.17;;
16870;SDS011;8552;48.120;-1.456;2024-03-07T08:19:37;8.60;;;4.87;;
16870;SDS011;8552;48.120;-1.456;2024-03-07T08:22:03;9.47;;;4.73;;
16870;SDS011;8552;48.120;-1.456;2024-03-07T08:24:29;8.87;;;4.50;;
16870;SDS011;8552;48.120;-1.456;2024-03-07T08:26:57;9.33;;;5.03;;
16870;SDS011;8552;48.120;-1.456;2024-03-07T08:29:23;7.47;;;4.70;;
16870;SDS011;8552;48.120;-1.456;2024-03-07T08:31:49;9.97;;;4.73;;
16870;SDS011;8552;48.120;-1.456;2024-03-07T08:34:16;11.47;;;5.50;;
16870;SDS011;8552;48.120;-1.456;2024-03-07T08:36:42;7.30;;;4.43;;
16870;SDS011;8552;48.120;-1.456;2024-03-07T08:39:08;8.53;;;3.77;;
16870;SDS011;8552;48.120;-1.456;2024-03-07T08:41:36;7.53;;;4.30;;
16870;SDS011;8552;48.120;-1.456;2024-03-07T08:44:06;8.53;;;4.13;;
16870;SDS011;8552;48.120;-1.456;2024-03-07T08:46:34;6.40;;;3.70;;
16870;SDS011;8552;48.120;-1.456;2024-03-07T08:49:01;9.10;;;4.33;;
16870;SDS011;8552;48.120;-1.456;2024-03-07T08:51:27;6.47;;;3.20;;
16870;SDS011;8552;48.120;-1.456;2024-03-07T08:53:53;6.93;;;3.20;;
16870;SDS011;8552;48.120;-1.456;2024-03-07T08:56:20;5.37;;;3.23;;
16870;SDS011;8552;48.120;-1.456;2024-03-07T08:58:47;7.37;;;3.50;;
16870;SDS011;8552;48.120;-1.456;2024-03-07T09:01:13;7.73;;;3.17;;
16870;SDS011;8552;48.120;-1.456;2024-03-07T09:03:39;6.63;;;2.73;;
16870;SDS011;8552;48.120;-1.456;2024-03-07T09:06:05;6.33;;;2.70;;
16870;SDS011;8552;48.120;-1.456;2024-03-07T09:08:31;5.07;;;2.87;;
16870;SDS011;8552;48.120;-1.456;2024-03-07T09:10:58;7.07;;;3.23;;
16870;SDS011;8552;48.120;-1.456;2024-03-07T09:13:24;6.33;;;2.90;;
16870;SDS011;8552;48.120;-1.456;2024-03-07T09:15:50;6.43;;;2.93;;
16870;SDS011;8552;48.120;-1.456;2024-03-07T09:18:17;5.10;;;2.60;;
16870;SDS011;8552;48.120;-1.456;2024-03-07T09:20:44;6.53;;;2.40;;
16870;SDS011;8552;48.120;-1.456;2024-03-07T09:23:11;6.20;;;2.80;;
16870;SDS011;8552;48.120;-1.456;2024-03-07T09:25:39;3.00;;;2.27;;
16870;SDS011;8552;48.120;-1.456;2024-03-07T09:28:06;7.70;;;3.07;;
16870;SDS011;8552;48.120;-1.456;2024-03-07T09:30:32;7.80;;;2.30;;
16870;SDS011;8552;48.120;-1.456;2024-03-07T09:32:58;3.60;;;2.03;;
16870;SDS011;8552;48.120;-1.456;2024-03-07T09:35:24;3.80;;;1.97;;
16870;SDS011;8552;48.120;-1.456;2024-03-07T09:37:50;7.80;;;2.17;;
16870;SDS011;8552;48.120;-1.456;2024-03-07T09:40:16;7.13;;;2.30;;
16870;SDS011;8552;48.120;-1.456;2024-03-07T09:42:46;7.67;;;1.87;;
16870;SDS011;8552;48.120;-1.456;2024-03-07T09:45:21;4.53;;;1.93;;
16870;SDS011;8552;48.120;-1.456;2024-03-07T09:47:49;5.63;;;1.53;;
16870;SDS011;8552;48.120;-1.456;2024-03-07T09:50:17;6.70;;;1.53;;
16870;SDS011;8552;48.120;-1.456;2024-03-07T09:52:52;4.77;;;1.50;;
16870;SDS011;8552;48.120;-1.456;2024-03-07T09:55:18;5.90;;;1.47;;
16870;SDS011;8552;48.120;-1.456;2024-03-07T09:57:49;4.87;;;1.60;;
16870;SDS011;8552;48.120;-1.456;2024-03-07T10:00:18;4.77;;;1.83;;
16870;SDS011;8552;48.120;-1.456;2024-03-07T10:02:48;1.77;;;1.10;;
16870;SDS011;8552;48.120;-1.456;2024-03-07T10:05:15;3.23;;;1.10;;
16870;SDS011;8552;48.120;-1.456;2024-03-07T10:07:43;4.57;;;2.10;;
16870;SDS011;8552;48.120;-1.456;2024-03-07T10:10:10;5.20;;;1.47;;
16870;SDS011;8552;48.120;-1.456;2024-03-07T10:12:37;1.60;;;1.23;;
16870;SDS011;8552;48.120;-1.456;2024-03-07T10:15:03;3.13;;;1.10;;
16870;SDS011;8552;48.120;-1.456;2024-03-07T10:17:30;5.13;;;1.50;;
16870;SDS011;8552;48.120;-1.456;2024-03-07T10:19:58;4.63;;;1.37;;
16870;SDS011;8552;48.120;-1.456;2024-03-07T10:22:25;2.77;;;1.17;;
16870;SDS011;8552;48.120;-1.456;2024-03-07T10:24:55;4.10;;;1.60;;
16870;SDS011;8552;48.120;-1.456;2024-03-07T10:27:25;4.60;;;1.83;;
16870;SDS011;8552;48.120;-1.456;2024-03-07T10:29:51;6.30;;;1.98;;
16870;SDS011;8552;48.120;-1.456;2024-03-07T10:32:19;4.95;;;1.52;;
16870;SDS011;8552;48.120;-1.456;2024-03-07T10:34:45;4.03;;;1.90;;
16870;SDS011;8552;48.120;-1.456;2024-03-07T10:37:13;2.35;;;1.60;;
16870;SDS011;8552;48.120;-1.456;2024-03-07T10:39:44;3.50;;;1.60;;
16870;SDS011;8552;48.120;-1.456;2024-03-07T10:42:14;2.08;;;1.55;;
16870;SDS011;8552;48.120;-1.456;2024-03-07T10:44:47;4.78;;;1.20;;
16870;SDS011;8552;48.120;-1.456;2024-03-07T10:47:17;14.52;;;3.42;;
16870;SDS011;8552;48.120;-1.456;2024-03-07T10:49:48;4.57;;;1.80;;
16870;SDS011;8552;48.120;-1.456;2024-03-07T10:52:16;3.03;;;1.75;;
16870;SDS011;8552;48.120;-1.456;2024-03-07T10:55:00;3.33;;;1.75;;
16870;SDS011;8552;48.120;-1.456;2024-03-07T10:57:31;6.13;;;1.80;;
16870;SDS011;8552;48.120;-1.456;2024-03-07T11:00:02;3.20;;;1.55;;
16870;SDS011;8552;48.120;-1.456;2024-03-07T11:02:49;2.65;;;1.45;;
16870;SDS011;8552;48.120;-1.456;2024-03-07T11:05:18;4.30;;;1.55;;
16870;SDS011;8552;48.120;-1.456;2024-03-07T11:07:44;5.90;;;1.48;;
16870;SDS011;8552;48.120;-1.456;2024-03-07T11:10:11;1.83;;;1.30;;
16870;SDS011;8552;48.120;-1.456;2024-03-07T11:12:38;5.47;;;1.67;;
16870;SDS011;8552;48.120;-1.456;2024-03-07T11:15:06;2.20;;;1.30;;
16870;SDS011;8552;48.120;-1.456;2024-03-07T11:17:32;3.45;;;1.38;;
16870;SDS011;8552;48.120;-1.456;2024-03-07T11:22:44;1.88;;;1.10;;
16870;SDS011;8552;48.120;-1.456;2024-03-07T11:25:11;3.00;;;0.77;;
16870;SDS011;8552;48.120;-1.456;2024-03-07T11:27:38;2.25;;;0.85;;
16870;SDS011;8552;48.120;-1.456;2024-03-07T11:30:07;2.38;;;1.30;;
16870;SDS011;8552;48.120;-1.456;2024-03-07T11:32:34;1.23;;;0.90;;
16870;SDS011;8552;48.120;-1.456;2024-03-07T11:35:03;2.47;;;1.15;;
16870;SDS011;8552;48.120;-1.456;2024-03-07T11:37:37;1.00;;;0.90;;
16870;SDS011;8552;48.120;-1.456;2024-03-07T11:40:08;0.63;;;0.60;;
16870;SDS011;8552;48.120;-1.456;2024-03-07T11:42:43;2.50;;;0.75;;
16870;SDS011;8552;48.120;-1.456;2024-03-07T11:45:09;2.97;;;0.93;;
16870;SDS011;8552;48.120;-1.456;2024-03-07T11:47:45;3.58;;;0.93;;
16870;SDS011;8552;48.120;-1.456;2024-03-07T11:50:12;1.38;;;0.70;;
16870;SDS011;8552;48.120;-1.456;2024-03-07T11:52:38;3.83;;;0.90;;
16870;SDS011;8552;48.120;-1.456;2024-03-07T11:55:07;1.35;;;0.80;;
16870;SDS011;8552;48.120;-1.456;2024-03-07T11:57:34;2.33;;;0.82;;
16870;SDS011;8552;48.120;-1.456;2024-03-07T12:00:00;2.08;;;0.98;;
16870;SDS011;8552;48.120;-1.456;2024-03-07T12:02:33;1.80;;;1.23;;
16870;SDS011;8552;48.120;-1.456;2024-03-07T12:04:59;0.88;;;0.70;;
16870;SDS011;8552;48.120;-1.456;2024-03-07T12:07:30;2.40;;;1.20;;
16870;SDS011;8552;48.120;-1.456;2024-03-07T12:09:56;0.90;;;0.80;;
16870;SDS011;8552;48.120;-1.456;2024-03-07T12:12:22;1.75;;;0.90;;
16870;SDS011;8552;48.120;-1.456;2024-03-07T12:14:55;2.05;;;1.08;;
16870;SDS011;8552;48.120;-1.456;2024-03-07T12:17:21;2.75;;;1.10;;
16870;SDS011;8552;48.120;-1.456;2024-03-07T12:19:48;1.25;;;0.80;;
16870;SDS011;8552;48.120;-1.456;2024-03-07T12:22:18;2.22;;;1.00;;
16870;SDS011;8552;48.120;-1.456;2024-03-07T12:24:48;1.08;;;0.88;;
16870;SDS011;8552;48.120;-1.456;2024-03-07T12:27:15;2.15;;;1.08;;
16870;SDS011;8552;48.120;-1.456;2024-03-07T12:29:42;2.10;;;1.05;;
16870;SDS011;8552;48.120;-1.456;2024-03-07T12:32:09;1.73;;;1.08;;
16870;SDS011;8552;48.120;-1.456;2024-03-07T12:34:50;2.13;;;0.80;;
16870;SDS011;8552;48.120;-1.456;2024-03-07T12:37:17;3.05;;;1.10;;
16870;SDS011;8552;48.120;-1.456;2024-03-07T12:39:49;1.52;;;0.82;;
16870;SDS011;8552;48.120;-1.456;2024-03-07T12:42:27;2.78;;;1.13;;
16870;SDS011;8552;48.120;-1.456;2024-03-07T12:44:59;1.75;;;1.00;;
16870;SDS011;8552;48.120;-1.456;2024-03-07T12:47:26;1.73;;;1.00;;
16870;SDS011;8552;48.120;-1.456;2024-03-07T12:49:53;1.83;;;0.82;;
16870;SDS011;8552;48.120;-1.456;2024-03-07T12:52:23;1.35;;;0.80;;
16870;SDS011;8552;48.120;-1.456;2024-03-07T12:54:50;2.30;;;0.90;;
16870;SDS011;8552;48.120;-1.456;2024-03-07T12:57:16;0.90;;;0.60;;
16870;SDS011;8552;48.120;-1.456;2024-03-07T12:59:43;1.92;;;1.35;;
16870;SDS011;8552;48.120;-1.456;2024-03-07T13:02:12;1.20;;;1.05;;
16870;SDS011;8552;48.120;-1.456;2024-03-07T13:04:38;1.30;;;0.75;;
16870;SDS011;8552;48.120;-1.456;2024-03-07T13:07:04;1.77;;;0.77;;
16870;SDS011;8552;48.120;-1.456;2024-03-07T13:09:31;1.33;;;0.70;;
16870;SDS011;8552;48.120;-1.456;2024-03-07T13:11:58;0.65;;;0.65;;
16870;SDS011;8552;48.120;-1.456;2024-03-07T13:14:29;1.33;;;0.50;;
16870;SDS011;8552;48.120;-1.456;2024-03-07T13:16:58;2.28;;;0.70;;
16870;SDS011;8552;48.120;-1.456;2024-03-07T13:19:26;2.22;;;0.82;;
16870;SDS011;8552;48.120;-1.456;2024-03-07T13:21:52;1.50;;;0.63;;
16870;SDS011;8552;48.120;-1.456;2024-03-07T13:24:21;2.80;;;0.75;;
16870;SDS011;8552;48.120;-1.456;2024-03-07T13:26:52;0.65;;;0.65;;
16870;SDS011;8552;48.120;-1.456;2024-03-07T13:29:19;1.13;;;0.70;;
16870;SDS011;8552;48.120;-1.456;2024-03-07T13:31:49;3.83;;;0.77;;
16870;SDS011;8552;48.120;-1.456;2024-03-07T13:34:16;2.00;;;0.55;;
16870;SDS011;8552;48.120;-1.456;2024-03-07T13:36:43;2.95;;;0.93;;
16870;SDS011;8552;48.120;-1.456;2024-03-07T13:39:10;2.03;;;0.77;;
16870;SDS011;8552;48.120;-1.456;2024-03-07T13:41:43;1.05;;;0.85;;
16870;SDS011;8552;48.120;-1.456;2024-03-07T13:44:13;1.75;;;0.80;;
16870;SDS011;8552;48.120;-1.456;2024-03-07T13:46:40;3.30;;;1.00;;
16870;SDS011;8552;48.120;-1.456;2024-03-07T13:49:06;1.08;;;0.75;;
16870;SDS011;8552;48.120;-1.456;2024-03-07T13:51:37;2.03;;;0.93;;
16870;SDS011;8552;48.120;-1.456;2024-03-07T13:54:06;1.27;;;0.80;;
16870;SDS011;8552;48.120;-1.456;2024-03-07T14:12:46;1.75;;;0.75;;
16870;SDS011;8552;48.120;-1.456;2024-03-07T14:23:24;2.45;;;0.82;;
16870;SDS011;8552;48.120;-1.456;2024-03-07T14:31:07;2.25;;;0.60;;
16870;SDS011;8552;48.120;-1.456;2024-03-07T14:39:22;2.50;;;0.82;;
16870;SDS011;8552;48.120;-1.456;2024-03-07T14:42:04;2.63;;;0.60;;
16870;SDS011;8552;48.120;-1.456;2024-03-07T14:44:36;0.80;;;0.80;;
16870;SDS011;8552;48.120;-1.456;2024-03-07T14:47:03;1.45;;;0.80;;
16870;SDS011;8552;48.120;-1.456;2024-03-07T14:49:35;1.10;;;1.00;;
16870;SDS011;8552;48.120;-1.456;2024-03-07T14:52:01;1.77;;;0.80;;
16870;SDS011;8552;48.120;-1.456;2024-03-07T14:54:28;1.90;;;0.75;;
16870;SDS011;8552;48.120;-1.456;2024-03-07T14:56:54;1.23;;;0.77;;
16870;SDS011;8552;48.120;-1.456;2024-03-07T14:59:20;2.55;;;0.70;;
16870;SDS011;8552;48.120;-1.456;2024-03-07T15:01:47;2.42;;;0.90;;
16870;SDS011;8552;48.120;-1.456;2024-03-07T15:04:13;3.47;;;1.10;;
16870;SDS011;8552;48.120;-1.456;2024-03-07T15:06:40;1.70;;;0.90;;
16870;SDS011;8552;48.120;-1.456;2024-03-07T15:09:09;0.77;;;0.77;;
16870;SDS011;8552;48.120;-1.456;2024-03-07T15:11:36;1.35;;;0.75;;
16870;SDS011;8552;48.120;-1.456;2024-03-07T15:14:09;1.60;;;0.88;;
16870;SDS011;8552;48.120;-1.456;2024-03-07T15:16:38;0.95;;;0.70;;
16870;SDS011;8552;48.120;-1.456;2024-03-07T15:19:07;2.55;;;0.80;;
16870;SDS011;8552;48.120;-1.456;2024-03-07T15:21:37;2.15;;;0.80;;
16870;SDS011;8552;48.120;-1.456;2024-03-07T15:24:03;2.65;;;0.75;;